Аэропорт: Нижневартовск. Нижневартовск

ICAO: USNN

METAR:
2018/07/16 19:30
USNN 161930Z 01002MPS CAVOK 15/14 Q1016 R21/0///65 NOSIG RMK QFE757
METAR:
2018/07/16 18:21
TAF USNN 161700Z 1618/1718 32003MPS CAVOK 
      TEMPO 1618/1706 VRB01MPS